sensor_id;sensor_type;location;lat;lon;timestamp;P1;durP1;ratioP1;P2;durP2;ratioP2
20478;SDS011;10398;52.490;13.434;2023-09-18T00:00:50;7.95;;;5.10;;
20478;SDS011;10398;52.490;13.434;2023-09-18T00:03:20;8.88;;;5.53;;
20478;SDS011;10398;52.490;13.434;2023-09-18T00:05:49;8.85;;;5.50;;
20478;SDS011;10398;52.490;13.434;2023-09-18T00:08:16;10.02;;;5.32;;
20478;SDS011;10398;52.490;13.434;2023-09-18T00:10:42;8.88;;;5.00;;
20478;SDS011;10398;52.490;13.434;2023-09-18T00:13:13;9.48;;;5.82;;
20478;SDS011;10398;52.490;13.434;2023-09-18T00:15:39;10.82;;;5.10;;
20478;SDS011;10398;52.490;13.434;2023-09-18T00:18:06;9.30;;;5.75;;
20478;SDS011;10398;52.490;13.434;2023-09-18T00:20:32;9.43;;;5.57;;
20478;SDS011;10398;52.490;13.434;2023-09-18T00:22:58;9.73;;;5.80;;
20478;SDS011;10398;52.490;13.434;2023-09-18T00:25:24;13.00;;;5.10;;
20478;SDS011;10398;52.490;13.434;2023-09-18T00:27:49;9.57;;;5.25;;
20478;SDS011;10398;52.490;13.434;2023-09-18T00:30:17;7.57;;;5.00;;
20478;SDS011;10398;52.490;13.434;2023-09-18T00:32:42;9.68;;;5.78;;
20478;SDS011;10398;52.490;13.434;2023-09-18T00:35:08;12.20;;;5.18;;
20478;SDS011;10398;52.490;13.434;2023-09-18T00:37:33;9.35;;;5.63;;
20478;SDS011;10398;52.490;13.434;2023-09-18T00:40:01;8.23;;;4.78;;
20478;SDS011;10398;52.490;13.434;2023-09-18T00:42:27;10.02;;;5.45;;
20478;SDS011;10398;52.490;13.434;2023-09-18T00:44:53;10.60;;;5.80;;
20478;SDS011;10398;52.490;13.434;2023-09-18T00:47:18;8.45;;;5.38;;
20478;SDS011;10398;52.490;13.434;2023-09-18T00:49:45;10.82;;;5.50;;
20478;SDS011;10398;52.490;13.434;2023-09-18T00:52:13;7.45;;;5.30;;
20478;SDS011;10398;52.490;13.434;2023-09-18T00:54:40;8.48;;;4.63;;
20478;SDS011;10398;52.490;13.434;2023-09-18T00:57:08;8.15;;;5.30;;
20478;SDS011;10398;52.490;13.434;2023-09-18T00:59:35;8.00;;;4.95;;
20478;SDS011;10398;52.490;13.434;2023-09-18T01:02:01;8.38;;;5.13;;
20478;SDS011;10398;52.490;13.434;2023-09-18T01:04:28;10.07;;;5.72;;
20478;SDS011;10398;52.490;13.434;2023-09-18T01:06:55;7.85;;;4.90;;
20478;SDS011;10398;52.490;13.434;2023-09-18T01:09:23;8.90;;;5.43;;
20478;SDS011;10398;52.490;13.434;2023-09-18T01:11:59;8.77;;;5.43;;
20478;SDS011;10398;52.490;13.434;2023-09-18T01:17:05;7.78;;;5.22;;
20478;SDS011;10398;52.490;13.434;2023-09-18T01:19:37;8.30;;;5.28;;
20478;SDS011;10398;52.490;13.434;2023-09-18T01:22:10;9.18;;;5.18;;
20478;SDS011;10398;52.490;13.434;2023-09-18T01:24:37;9.48;;;5.03;;
20478;SDS011;10398;52.490;13.434;2023-09-18T01:27:04;9.70;;;5.93;;
20478;SDS011;10398;52.490;13.434;2023-09-18T01:29:31;8.65;;;5.18;;
20478;SDS011;10398;52.490;13.434;2023-09-18T01:31:57;8.48;;;5.18;;
20478;SDS011;10398;52.490;13.434;2023-09-18T01:34:26;12.38;;;4.80;;
20478;SDS011;10398;52.490;13.434;2023-09-18T01:36:57;9.85;;;5.30;;
20478;SDS011;10398;52.490;13.434;2023-09-18T01:39:23;7.95;;;4.90;;
20478;SDS011;10398;52.490;13.434;2023-09-18T01:41:52;9.90;;;5.05;;
20478;SDS011;10398;52.490;13.434;2023-09-18T01:44:18;8.10;;;4.57;;
20478;SDS011;10398;52.490;13.434;2023-09-18T01:46:44;9.95;;;5.43;;
20478;SDS011;10398;52.490;13.434;2023-09-18T01:49:10;7.30;;;5.30;;
20478;SDS011;10398;52.490;13.434;2023-09-18T01:51:36;7.63;;;4.88;;
20478;SDS011;10398;52.490;13.434;2023-09-18T01:54:01;8.85;;;4.82;;
20478;SDS011;10398;52.490;13.434;2023-09-18T01:56:28;8.30;;;5.13;;
20478;SDS011;10398;52.490;13.434;2023-09-18T01:58:54;6.30;;;4.53;;
20478;SDS011;10398;52.490;13.434;2023-09-18T02:01:20;7.45;;;4.40;;
20478;SDS011;10398;52.490;13.434;2023-09-18T02:03:45;8.27;;;5.25;;
20478;SDS011;10398;52.490;13.434;2023-09-18T02:06:12;8.32;;;4.53;;
20478;SDS011;10398;52.490;13.434;2023-09-18T02:08:37;7.85;;;4.70;;
20478;SDS011;10398;52.490;13.434;2023-09-18T02:11:03;8.23;;;4.88;;
20478;SDS011;10398;52.490;13.434;2023-09-18T02:13:29;7.50;;;4.65;;
20478;SDS011;10398;52.490;13.434;2023-09-18T02:15:55;11.00;;;4.93;;
20478;SDS011;10398;52.490;13.434;2023-09-18T02:18:21;8.88;;;4.60;;
20478;SDS011;10398;52.490;13.434;2023-09-18T02:20:47;8.98;;;4.95;;
20478;SDS011;10398;52.490;13.434;2023-09-18T02:23:17;7.50;;;4.55;;
20478;SDS011;10398;52.490;13.434;2023-09-18T02:25:43;9.25;;;4.65;;
20478;SDS011;10398;52.490;13.434;2023-09-18T02:28:09;6.35;;;4.97;;
20478;SDS011;10398;52.490;13.434;2023-09-18T02:30:35;7.93;;;4.72;;
20478;SDS011;10398;52.490;13.434;2023-09-18T02:33:01;10.68;;;4.95;;
20478;SDS011;10398;52.490;13.434;2023-09-18T02:35:28;8.20;;;4.65;;
20478;SDS011;10398;52.490;13.434;2023-09-18T02:37:54;9.18;;;4.70;;
20478;SDS011;10398;52.490;13.434;2023-09-18T02:40:20;8.20;;;5.32;;
20478;SDS011;10398;52.490;13.434;2023-09-18T02:42:46;8.13;;;5.05;;
20478;SDS011;10398;52.490;13.434;2023-09-18T02:45:11;7.40;;;4.35;;
20478;SDS011;10398;52.490;13.434;2023-09-18T02:47:37;7.72;;;4.90;;
20478;SDS011;10398;52.490;13.434;2023-09-18T02:50:06;9.85;;;5.18;;
20478;SDS011;10398;52.490;13.434;2023-09-18T02:52:32;7.88;;;4.55;;
20478;SDS011;10398;52.490;13.434;2023-09-18T02:54:57;8.00;;;4.55;;
20478;SDS011;10398;52.490;13.434;2023-09-18T02:57:23;7.05;;;4.43;;
20478;SDS011;10398;52.490;13.434;2023-09-18T02:59:49;7.32;;;4.68;;
20478;SDS011;10398;52.490;13.434;2023-09-18T03:02:14;6.55;;;4.13;;
20478;SDS011;10398;52.490;13.434;2023-09-18T03:04:40;5.95;;;4.30;;
20478;SDS011;10398;52.490;13.434;2023-09-18T03:07:05;10.88;;;4.68;;
20478;SDS011;10398;52.490;13.434;2023-09-18T03:09:31;9.30;;;4.78;;
20478;SDS011;10398;52.490;13.434;2023-09-18T03:11:57;7.45;;;4.55;;
20478;SDS011;10398;52.490;13.434;2023-09-18T03:14:22;7.15;;;4.53;;
20478;SDS011;10398;52.490;13.434;2023-09-18T03:16:48;8.27;;;4.78;;
20478;SDS011;10398;52.490;13.434;2023-09-18T03:19:15;7.57;;;4.75;;
20478;SDS011;10398;52.490;13.434;2023-09-18T03:21:41;9.90;;;4.65;;
20478;SDS011;10398;52.490;13.434;2023-09-18T03:24:06;7.72;;;4.25;;
20478;SDS011;10398;52.490;13.434;2023-09-18T03:26:32;6.95;;;4.53;;
20478;SDS011;10398;52.490;13.434;2023-09-18T03:28:58;8.18;;;4.20;;
20478;SDS011;10398;52.490;13.434;2023-09-18T03:31:23;6.78;;;4.28;;
20478;SDS011;10398;52.490;13.434;2023-09-18T03:33:49;6.90;;;4.10;;
20478;SDS011;10398;52.490;13.434;2023-09-18T03:36:14;8.45;;;4.35;;
20478;SDS011;10398;52.490;13.434;2023-09-18T03:38:40;7.68;;;4.30;;
20478;SDS011;10398;52.490;13.434;2023-09-18T03:41:06;7.53;;;4.65;;
20478;SDS011;10398;52.490;13.434;2023-09-18T03:43:31;8.52;;;4.30;;
20478;SDS011;10398;52.490;13.434;2023-09-18T03:46:04;9.77;;;5.38;;
20478;SDS011;10398;52.490;13.434;2023-09-18T03:48:30;13.18;;;6.03;;
20478;SDS011;10398;52.490;13.434;2023-09-18T03:51:01;9.07;;;5.18;;
20478;SDS011;10398;52.490;13.434;2023-09-18T03:53:27;9.52;;;5.40;;
20478;SDS011;10398;52.490;13.434;2023-09-18T03:55:52;13.23;;;6.65;;
20478;SDS011;10398;52.490;13.434;2023-09-18T03:58:18;8.40;;;4.68;;
20478;SDS011;10398;52.490;13.434;2023-09-18T04:00:45;7.18;;;4.65;;
20478;SDS011;10398;52.490;13.434;2023-09-18T04:03:11;7.18;;;4.40;;
20478;SDS011;10398;52.490;13.434;2023-09-18T04:05:36;12.60;;;4.68;;
20478;SDS011;10398;52.490;13.434;2023-09-18T04:08:02;7.87;;;4.10;;
20478;SDS011;10398;52.490;13.434;2023-09-18T04:10:28;8.25;;;4.82;;
20478;SDS011;10398;52.490;13.434;2023-09-18T04:12:53;7.30;;;4.32;;
20478;SDS011;10398;52.490;13.434;2023-09-18T04:15:19;10.73;;;4.50;;
20478;SDS011;10398;52.490;13.434;2023-09-18T04:17:46;5.38;;;3.88;;
20478;SDS011;10398;52.490;13.434;2023-09-18T04:20:12;10.93;;;4.22;;
20478;SDS011;10398;52.490;13.434;2023-09-18T04:22:43;7.80;;;4.50;;
20478;SDS011;10398;52.490;13.434;2023-09-18T04:25:09;7.60;;;4.43;;
20478;SDS011;10398;52.490;13.434;2023-09-18T04:27:36;6.93;;;4.72;;
20478;SDS011;10398;52.490;13.434;2023-09-18T04:30:01;9.82;;;4.78;;
20478;SDS011;10398;52.490;13.434;2023-09-18T04:32:28;7.20;;;4.15;;
20478;SDS011;10398;52.490;13.434;2023-09-18T04:34:54;7.50;;;4.43;;
20478;SDS011;10398;52.490;13.434;2023-09-18T04:37:20;10.15;;;4.70;;
20478;SDS011;10398;52.490;13.434;2023-09-18T04:39:45;7.68;;;4.63;;
20478;SDS011;10398;52.490;13.434;2023-09-18T04:42:11;8.45;;;4.63;;
20478;SDS011;10398;52.490;13.434;2023-09-18T04:44:37;7.28;;;4.22;;
20478;SDS011;10398;52.490;13.434;2023-09-18T04:47:02;6.90;;;4.20;;
20478;SDS011;10398;52.490;13.434;2023-09-18T04:49:28;6.93;;;4.60;;
20478;SDS011;10398;52.490;13.434;2023-09-18T04:51:54;7.80;;;4.68;;
20478;SDS011;10398;52.490;13.434;2023-09-18T04:54:20;10.00;;;4.80;;
20478;SDS011;10398;52.490;13.434;2023-09-18T04:56:46;10.43;;;4.40;;
20478;SDS011;10398;52.490;13.434;2023-09-18T04:59:12;9.68;;;4.38;;
20478;SDS011;10398;52.490;13.434;2023-09-18T05:01:37;12.43;;;4.28;;
20478;SDS011;10398;52.490;13.434;2023-09-18T05:04:03;11.18;;;5.28;;
20478;SDS011;10398;52.490;13.434;2023-09-18T05:06:29;15.70;;;5.53;;
20478;SDS011;10398;52.490;13.434;2023-09-18T05:08:54;9.65;;;4.95;;
20478;SDS011;10398;52.490;13.434;2023-09-18T05:11:20;11.10;;;4.97;;
20478;SDS011;10398;52.490;13.434;2023-09-18T05:13:46;13.82;;;5.50;;
20478;SDS011;10398;52.490;13.434;2023-09-18T05:16:12;10.57;;;5.60;;
20478;SDS011;10398;52.490;13.434;2023-09-18T05:18:38;7.07;;;4.55;;
20478;SDS011;10398;52.490;13.434;2023-09-18T05:21:04;10.30;;;5.10;;
20478;SDS011;10398;52.490;13.434;2023-09-18T05:23:30;13.38;;;4.97;;
20478;SDS011;10398;52.490;13.434;2023-09-18T05:25:55;13.63;;;5.07;;
20478;SDS011;10398;52.490;13.434;2023-09-18T05:28:21;10.15;;;5.05;;
20478;SDS011;10398;52.490;13.434;2023-09-18T05:30:47;12.10;;;4.95;;
20478;SDS011;10398;52.490;13.434;2023-09-18T05:33:12;7.35;;;4.80;;
20478;SDS011;10398;52.490;13.434;2023-09-18T05:35:42;6.72;;;4.35;;
20478;SDS011;10398;52.490;13.434;2023-09-18T05:38:10;8.82;;;4.40;;
20478;SDS011;10398;52.490;13.434;2023-09-18T05:40:38;7.13;;;4.28;;
20478;SDS011;10398;52.490;13.434;2023-09-18T05:43:04;6.50;;;4.30;;
20478;SDS011;10398;52.490;13.434;2023-09-18T05:45:30;8.23;;;4.55;;
20478;SDS011;10398;52.490;13.434;2023-09-18T05:47:58;7.85;;;4.75;;
20478;SDS011;10398;52.490;13.434;2023-09-18T05:50:31;11.70;;;5.00;;
20478;SDS011;10398;52.490;13.434;2023-09-18T05:52:57;8.43;;;4.60;;
20478;SDS011;10398;52.490;13.434;2023-09-18T05:55:29;10.00;;;4.60;;
20478;SDS011;10398;52.490;13.434;2023-09-18T05:57:59;7.07;;;4.63;;
20478;SDS011;10398;52.490;13.434;2023-09-18T06:00:25;10.05;;;4.68;;
20478;SDS011;10398;52.490;13.434;2023-09-18T06:02:50;9.30;;;4.38;;
20478;SDS011;10398;52.490;13.434;2023-09-18T06:05:16;10.00;;;4.90;;
20478;SDS011;10398;52.490;13.434;2023-09-18T06:07:42;9.20;;;4.82;;
20478;SDS011;10398;52.490;13.434;2023-09-18T06:10:09;12.27;;;4.95;;
20478;SDS011;10398;52.490;13.434;2023-09-18T06:12:37;10.60;;;4.70;;
20478;SDS011;10398;52.490;13.434;2023-09-18T06:15:05;10.40;;;5.28;;
20478;SDS011;10398;52.490;13.434;2023-09-18T06:17:38;7.75;;;4.38;;
20478;SDS011;10398;52.490;13.434;2023-09-18T06:20:05;9.73;;;5.00;;
20478;SDS011;10398;52.490;13.434;2023-09-18T06:22:35;9.35;;;4.90;;
20478;SDS011;10398;52.490;13.434;2023-09-18T06:25:02;9.38;;;4.93;;
20478;SDS011;10398;52.490;13.434;2023-09-18T06:27:27;9.02;;;4.40;;
20478;SDS011;10398;52.490;13.434;2023-09-18T06:29:53;13.77;;;5.05;;
20478;SDS011;10398;52.490;13.434;2023-09-18T06:32:18;12.13;;;5.20;;
20478;SDS011;10398;52.490;13.434;2023-09-18T06:34:44;13.68;;;4.80;;
20478;SDS011;10398;52.490;13.434;2023-09-18T06:37:12;10.90;;;5.13;;
20478;SDS011;10398;52.490;13.434;2023-09-18T06:39:38;8.60;;;4.53;;
20478;SDS011;10398;52.490;13.434;2023-09-18T06:42:04;10.38;;;5.28;;
20478;SDS011;10398;52.490;13.434;2023-09-18T06:44:30;11.63;;;5.47;;
20478;SDS011;10398;52.490;13.434;2023-09-18T06:46:55;8.60;;;4.68;;
20478;SDS011;10398;52.490;13.434;2023-09-18T06:49:21;8.05;;;5.05;;
20478;SDS011;10398;52.490;13.434;2023-09-18T06:51:46;11.95;;;5.45;;
20478;SDS011;10398;52.490;13.434;2023-09-18T06:54:13;9.57;;;4.82;;
20478;SDS011;10398;52.490;13.434;2023-09-18T06:56:38;6.80;;;4.55;;
20478;SDS011;10398;52.490;13.434;2023-09-18T06:59:04;11.07;;;4.20;;
20478;SDS011;10398;52.490;13.434;2023-09-18T07:01:29;10.85;;;4.75;;
20478;SDS011;10398;52.490;13.434;2023-09-18T07:03:56;10.65;;;4.15;;
20478;SDS011;10398;52.490;13.434;2023-09-18T07:06:24;9.20;;;4.00;;
20478;SDS011;10398;52.490;13.434;2023-09-18T07:08:50;7.47;;;3.95;;
20478;SDS011;10398;52.490;13.434;2023-09-18T07:11:18;9.05;;;4.63;;
20478;SDS011;10398;52.490;13.434;2023-09-18T07:13:44;8.60;;;4.28;;
20478;SDS011;10398;52.490;13.434;2023-09-18T07:16:10;9.35;;;4.10;;
20478;SDS011;10398;52.490;13.434;2023-09-18T07:18:36;8.38;;;4.13;;
20478;SDS011;10398;52.490;13.434;2023-09-18T07:21:01;7.80;;;3.33;;
20478;SDS011;10398;52.490;13.434;2023-09-18T07:23:27;8.75;;;3.65;;
20478;SDS011;10398;52.490;13.434;2023-09-18T07:25:53;8.13;;;4.15;;
20478;SDS011;10398;52.490;13.434;2023-09-18T07:28:19;5.90;;;4.10;;
20478;SDS011;10398;52.490;13.434;2023-09-18T07:30:45;6.10;;;3.67;;
20478;SDS011;10398;52.490;13.434;2023-09-18T07:33:11;5.55;;;3.65;;
20478;SDS011;10398;52.490;13.434;2023-09-18T07:35:40;5.43;;;3.65;;
20478;SDS011;10398;52.490;13.434;2023-09-18T07:38:06;6.68;;;3.90;;
20478;SDS011;10398;52.490;13.434;2023-09-18T07:40:31;9.80;;;3.45;;
20478;SDS011;10398;52.490;13.434;2023-09-18T07:42:57;5.28;;;3.53;;
20478;SDS011;10398;52.490;13.434;2023-09-18T07:45:23;6.45;;;3.70;;
20478;SDS011;10398;52.490;13.434;2023-09-18T07:47:49;8.02;;;3.50;;
20478;SDS011;10398;52.490;13.434;2023-09-18T07:50:14;5.97;;;3.47;;
20478;SDS011;10398;52.490;13.434;2023-09-18T07:52:40;6.25;;;3.47;;
20478;SDS011;10398;52.490;13.434;2023-09-18T07:55:06;5.10;;;2.95;;
20478;SDS011;10398;52.490;13.434;2023-09-18T07:57:32;5.95;;;3.30;;
20478;SDS011;10398;52.490;13.434;2023-09-18T07:59:59;5.85;;;3.13;;
20478;SDS011;10398;52.490;13.434;2023-09-18T08:02:31;7.05;;;3.13;;
20478;SDS011;10398;52.490;13.434;2023-09-18T08:04:57;6.45;;;3.50;;
20478;SDS011;10398;52.490;13.434;2023-09-18T08:07:23;4.43;;;2.92;;
20478;SDS011;10398;52.490;13.434;2023-09-18T08:09:48;4.78;;;3.25;;
20478;SDS011;10398;52.490;13.434;2023-09-18T08:12:14;6.78;;;3.10;;
20478;SDS011;10398;52.490;13.434;2023-09-18T08:14:40;4.53;;;2.97;;
20478;SDS011;10398;52.490;13.434;2023-09-18T08:17:05;4.10;;;2.92;;
20478;SDS011;10398;52.490;13.434;2023-09-18T08:19:32;5.57;;;3.53;;
20478;SDS011;10398;52.490;13.434;2023-09-18T08:21:58;7.57;;;3.20;;
20478;SDS011;10398;52.490;13.434;2023-09-18T08:24:24;4.22;;;2.95;;
20478;SDS011;10398;52.490;13.434;2023-09-18T08:26:50;4.50;;;3.10;;
20478;SDS011;10398;52.490;13.434;2023-09-18T08:29:16;4.15;;;2.80;;
20478;SDS011;10398;52.490;13.434;2023-09-18T08:31:42;4.93;;;3.35;;
20478;SDS011;10398;52.490;13.434;2023-09-18T08:34:08;4.60;;;3.05;;
20478;SDS011;10398;52.490;13.434;2023-09-18T08:36:33;5.10;;;3.17;;
20478;SDS011;10398;52.490;13.434;2023-09-18T08:38:59;5.68;;;2.88;;
20478;SDS011;10398;52.490;13.434;2023-09-18T08:41:25;6.32;;;3.50;;
20478;SDS011;10398;52.490;13.434;2023-09-18T08:43:59;7.13;;;3.30;;
20478;SDS011;10398;52.490;13.434;2023-09-18T08:46:28;4.63;;;3.28;;
20478;SDS011;10398;52.490;13.434;2023-09-18T08:48:55;6.03;;;3.40;;
20478;SDS011;10398;52.490;13.434;2023-09-18T08:51:22;5.53;;;3.47;;
20478;SDS011;10398;52.490;13.434;2023-09-18T08:53:48;4.75;;;3.03;;
20478;SDS011;10398;52.490;13.434;2023-09-18T08:56:14;4.68;;;3.00;;
20478;SDS011;10398;52.490;13.434;2023-09-18T08:58:42;3.90;;;2.83;;
20478;SDS011;10398;52.490;13.434;2023-09-18T09:01:09;4.50;;;3.00;;
20478;SDS011;10398;52.490;13.434;2023-09-18T09:03:36;5.68;;;3.10;;
20478;SDS011;10398;52.490;13.434;2023-09-18T09:06:03;4.05;;;3.10;;
20478;SDS011;10398;52.490;13.434;2023-09-18T09:08:30;3.42;;;2.38;;
20478;SDS011;10398;52.490;13.434;2023-09-18T09:10:56;4.03;;;3.03;;
20478;SDS011;10398;52.490;13.434;2023-09-18T09:13:25;7.05;;;3.08;;
20478;SDS011;10398;52.490;13.434;2023-09-18T09:15:52;4.40;;;2.95;;
20478;SDS011;10398;52.490;13.434;2023-09-18T09:18:21;5.50;;;2.60;;
20478;SDS011;10398;52.490;13.434;2023-09-18T09:23:26;4.63;;;2.95;;
20478;SDS011;10398;52.490;13.434;2023-09-18T09:25:52;4.32;;;3.00;;
20478;SDS011;10398;52.490;13.434;2023-09-18T09:28:29;3.97;;;2.92;;
20478;SDS011;10398;52.490;13.434;2023-09-18T09:31:00;5.80;;;3.38;;
20478;SDS011;10398;52.490;13.434;2023-09-18T09:33:27;4.25;;;3.08;;
20478;SDS011;10398;52.490;13.434;2023-09-18T09:35:54;5.93;;;2.72;;
20478;SDS011;10398;52.490;13.434;2023-09-18T09:38:22;5.35;;;2.78;;
20478;SDS011;10398;52.490;13.434;2023-09-18T09:40:54;3.10;;;2.17;;
20478;SDS011;10398;52.490;13.434;2023-09-18T09:43:19;5.35;;;2.40;;
20478;SDS011;10398;52.490;13.434;2023-09-18T09:45:46;4.60;;;2.95;;
20478;SDS011;10398;52.490;13.434;2023-09-18T09:48:12;6.65;;;2.88;;
20478;SDS011;10398;52.490;13.434;2023-09-18T09:50:45;7.30;;;3.33;;
20478;SDS011;10398;52.490;13.434;2023-09-18T09:53:11;6.28;;;3.13;;
20478;SDS011;10398;52.490;13.434;2023-09-18T09:55:38;5.28;;;2.72;;
20478;SDS011;10398;52.490;13.434;2023-09-18T09:58:05;7.68;;;2.88;;
20478;SDS011;10398;52.490;13.434;2023-09-18T10:00:36;5.22;;;2.75;;
20478;SDS011;10398;52.490;13.434;2023-09-18T10:03:08;3.83;;;2.92;;
20478;SDS011;10398;52.490;13.434;2023-09-18T10:05:36;4.97;;;3.30;;
20478;SDS011;10398;52.490;13.434;2023-09-18T10:08:06;4.18;;;2.78;;
20478;SDS011;10398;52.490;13.434;2023-09-18T10:10:34;4.10;;;2.60;;
20478;SDS011;10398;52.490;13.434;2023-09-18T10:13:07;4.80;;;2.88;;
20478;SDS011;10398;52.490;13.434;2023-09-18T10:15:37;5.22;;;2.78;;
20478;SDS011;10398;52.490;13.434;2023-09-18T10:18:07;4.60;;;2.70;;
20478;SDS011;10398;52.490;13.434;2023-09-18T10:20:42;3.00;;;2.70;;
20478;SDS011;10398;52.490;13.434;2023-09-18T10:23:15;7.28;;;2.70;;
20478;SDS011;10398;52.490;13.434;2023-09-18T10:25:52;5.60;;;2.40;;
20478;SDS011;10398;52.490;13.434;2023-09-18T10:28:21;4.38;;;3.08;;
20478;SDS011;10398;52.490;13.434;2023-09-18T10:30:48;4.07;;;2.70;;
20478;SDS011;10398;52.490;13.434;2023-09-18T10:33:16;7.35;;;2.78;;
20478;SDS011;10398;52.490;13.434;2023-09-18T10:35:42;3.33;;;2.47;;
20478;SDS011;10398;52.490;13.434;2023-09-18T10:38:08;4.35;;;2.65;;
20478;SDS011;10398;52.490;13.434;2023-09-18T10:40:35;5.78;;;2.67;;
20478;SDS011;10398;52.490;13.434;2023-09-18T10:43:02;5.00;;;3.00;;
20478;SDS011;10398;52.490;13.434;2023-09-18T10:45:30;3.83;;;2.78;;
20478;SDS011;10398;52.490;13.434;2023-09-18T10:47:56;6.72;;;2.40;;
20478;SDS011;10398;52.490;13.434;2023-09-18T10:50:23;3.78;;;2.88;;
20478;SDS011;10398;52.490;13.434;2023-09-18T10:52:50;4.63;;;2.70;;
20478;SDS011;10398;52.490;13.434;2023-09-18T10:55:16;3.70;;;2.20;;
20478;SDS011;10398;52.490;13.434;2023-09-18T10:57:54;9.40;;;2.97;;
20478;SDS011;10398;52.490;13.434;2023-09-18T11:00:22;5.75;;;2.33;;
20478;SDS011;10398;52.490;13.434;2023-09-18T11:02:54;5.05;;;2.72;;
20478;SDS011;10398;52.490;13.434;2023-09-18T11:05:34;3.67;;;2.88;;
20478;SDS011;10398;52.490;13.434;2023-09-18T11:11:00;7.40;;;3.03;;
20478;SDS011;10398;52.490;13.434;2023-09-18T11:13:51;3.42;;;2.65;;
20478;SDS011;10398;52.490;13.434;2023-09-18T11:24:03;8.75;;;2.80;;
20478;SDS011;10398;52.490;13.434;2023-09-18T11:26:40;3.25;;;2.55;;
20478;SDS011;10398;52.490;13.434;2023-09-18T11:29:07;4.47;;;2.78;;
20478;SDS011;10398;52.490;13.434;2023-09-18T11:31:42;8.80;;;2.92;;
20478;SDS011;10398;52.490;13.434;2023-09-18T11:34:29;6.93;;;3.10;;
20478;SDS011;10398;52.490;13.434;2023-09-18T11:37:18;6.82;;;2.97;;
20478;SDS011;10398;52.490;13.434;2023-09-18T11:39:50;4.05;;;2.90;;
20478;SDS011;10398;52.490;13.434;2023-09-18T11:42:20;3.58;;;2.80;;
20478;SDS011;10398;52.490;13.434;2023-09-18T11:44:51;4.40;;;2.75;;
20478;SDS011;10398;52.490;13.434;2023-09-18T11:47:23;5.32;;;3.05;;
20478;SDS011;10398;52.490;13.434;2023-09-18T11:52:19;6.43;;;2.78;;
20478;SDS011;10398;52.490;13.434;2023-09-18T11:54:46;5.90;;;3.47;;
20478;SDS011;10398;52.490;13.434;2023-09-18T11:57:13;7.68;;;3.22;;
20478;SDS011;10398;52.490;13.434;2023-09-18T11:59:39;5.05;;;3.05;;
20478;SDS011;10398;52.490;13.434;2023-09-18T12:02:08;4.78;;;2.83;;
20478;SDS011;10398;52.490;13.434;2023-09-18T12:04:35;4.60;;;2.85;;
20478;SDS011;10398;52.490;13.434;2023-09-18T12:07:02;5.18;;;2.75;;
20478;SDS011;10398;52.490;13.434;2023-09-18T12:09:33;6.40;;;2.97;;
20478;SDS011;10398;52.490;13.434;2023-09-18T12:11:59;3.97;;;2.85;;
20478;SDS011;10398;52.490;13.434;2023-09-18T12:14:31;3.90;;;2.92;;
20478;SDS011;10398;52.490;13.434;2023-09-18T12:16:58;4.80;;;3.00;;
20478;SDS011;10398;52.490;13.434;2023-09-18T12:19:26;6.60;;;3.42;;
20478;SDS011;10398;52.490;13.434;2023-09-18T12:21:52;6.53;;;3.28;;
20478;SDS011;10398;52.490;13.434;2023-09-18T12:24:25;4.40;;;2.95;;
20478;SDS011;10398;52.490;13.434;2023-09-18T12:26:51;4.15;;;2.70;;
20478;SDS011;10398;52.490;13.434;2023-09-18T12:29:18;6.25;;;3.13;;
20478;SDS011;10398;52.490;13.434;2023-09-18T12:31:45;4.57;;;2.65;;
20478;SDS011;10398;52.490;13.434;2023-09-18T12:34:17;3.72;;;2.80;;
20478;SDS011;10398;52.490;13.434;2023-09-18T12:36:44;4.05;;;2.92;;
20478;SDS011;10398;52.490;13.434;2023-09-18T12:39:13;4.60;;;3.22;;
20478;SDS011;10398;52.490;13.434;2023-09-18T12:41:45;4.47;;;3.00;;
20478;SDS011;10398;52.490;13.434;2023-09-18T12:44:12;5.15;;;3.20;;
20478;SDS011;10398;52.490;13.434;2023-09-18T12:46:39;7.18;;;3.03;;
20478;SDS011;10398;52.490;13.434;2023-09-18T12:49:16;4.88;;;3.03;;
20478;SDS011;10398;52.490;13.434;2023-09-18T12:51:42;4.25;;;2.95;;
20478;SDS011;10398;52.490;13.434;2023-09-18T12:54:09;7.28;;;3.58;;
20478;SDS011;10398;52.490;13.434;2023-09-18T12:56:42;6.35;;;3.13;;
20478;SDS011;10398;52.490;13.434;2023-09-18T12:59:07;7.05;;;3.20;;
20478;SDS011;10398;52.490;13.434;2023-09-18T13:01:34;4.75;;;3.17;;
20478;SDS011;10398;52.490;13.434;2023-09-18T13:03:59;5.97;;;3.25;;
20478;SDS011;10398;52.490;13.434;2023-09-18T13:06:30;8.02;;;3.22;;
20478;SDS011;10398;52.490;13.434;2023-09-18T13:09:01;5.80;;;3.03;;
20478;SDS011;10398;52.490;13.434;2023-09-18T13:11:56;3.50;;;2.50;;
20478;SDS011;10398;52.490;13.434;2023-09-18T13:14:23;5.63;;;3.10;;
20478;SDS011;10398;52.490;13.434;2023-09-18T13:16:49;4.88;;;2.92;;
20478;SDS011;10398;52.490;13.434;2023-09-18T13:19:15;6.18;;;3.55;;
20478;SDS011;10398;52.490;13.434;2023-09-18T13:21:48;5.57;;;2.67;;
20478;SDS011;10398;52.490;13.434;2023-09-18T13:27:10;4.45;;;2.83;;
20478;SDS011;10398;52.490;13.434;2023-09-18T13:29:36;5.38;;;3.17;;
20478;SDS011;10398;52.490;13.434;2023-09-18T13:32:01;9.00;;;3.60;;
20478;SDS011;10398;52.490;13.434;2023-09-18T13:34:29;6.85;;;2.75;;
20478;SDS011;10398;52.490;13.434;2023-09-18T13:36:56;5.88;;;3.10;;
20478;SDS011;10398;52.490;13.434;2023-09-18T13:39:22;7.38;;;3.75;;
20478;SDS011;10398;52.490;13.434;2023-09-18T13:41:48;5.25;;;2.80;;
20478;SDS011;10398;52.490;13.434;2023-09-18T13:44:14;7.55;;;3.17;;
20478;SDS011;10398;52.490;13.434;2023-09-18T13:46:42;9.30;;;3.25;;
20478;SDS011;10398;52.490;13.434;2023-09-18T13:49:08;6.00;;;2.97;;
20478;SDS011;10398;52.490;13.434;2023-09-18T13:51:33;6.70;;;3.13;;
20478;SDS011;10398;52.490;13.434;2023-09-18T13:53:59;7.57;;;3.08;;
20478;SDS011;10398;52.490;13.434;2023-09-18T13:56:25;5.95;;;2.90;;
20478;SDS011;10398;52.490;13.434;2023-09-18T13:58:55;7.38;;;2.80;;
20478;SDS011;10398;52.490;13.434;2023-09-18T14:01:21;4.60;;;2.75;;
20478;SDS011;10398;52.490;13.434;2023-09-18T14:03:49;4.10;;;2.72;;
20478;SDS011;10398;52.490;13.434;2023-09-18T14:06:15;4.85;;;2.53;;
20478;SDS011;10398;52.490;13.434;2023-09-18T14:08:41;4.90;;;2.83;;
20478;SDS011;10398;52.490;13.434;2023-09-18T14:11:07;7.07;;;2.97;;
20478;SDS011;10398;52.490;13.434;2023-09-18T14:13:33;4.75;;;2.80;;
20478;SDS011;10398;52.490;13.434;2023-09-18T14:16:01;4.82;;;3.08;;
20478;SDS011;10398;52.490;13.434;2023-09-18T14:18:31;6.22;;;2.83;;
20478;SDS011;10398;52.490;13.434;2023-09-18T14:20:57;5.32;;;2.88;;
20478;SDS011;10398;52.490;13.434;2023-09-18T14:23:22;5.85;;;2.88;;
20478;SDS011;10398;52.490;13.434;2023-09-18T14:25:48;5.10;;;2.42;;
20478;SDS011;10398;52.490;13.434;2023-09-18T14:28:15;6.13;;;2.97;;
20478;SDS011;10398;52.490;13.434;2023-09-18T14:30:41;5.10;;;2.80;;
20478;SDS011;10398;52.490;13.434;2023-09-18T14:33:06;7.30;;;2.88;;
20478;SDS011;10398;52.490;13.434;2023-09-18T14:35:33;3.42;;;2.53;;
20478;SDS011;10398;52.490;13.434;2023-09-18T14:38:01;5.32;;;2.90;;
20478;SDS011;10398;52.490;13.434;2023-09-18T14:40:29;8.90;;;4.13;;
20478;SDS011;10398;52.490;13.434;2023-09-18T14:42:54;6.57;;;3.25;;
20478;SDS011;10398;52.490;13.434;2023-09-18T14:45:20;7.15;;;2.95;;
20478;SDS011;10398;52.490;13.434;2023-09-18T14:47:46;3.58;;;2.47;;
20478;SDS011;10398;52.490;13.434;2023-09-18T14:50:11;3.95;;;2.17;;
20478;SDS011;10398;52.490;13.434;2023-09-18T14:52:37;3.92;;;2.10;;
20478;SDS011;10398;52.490;13.434;2023-09-18T14:55:03;6.28;;;2.63;;